sensor_id;sensor_type;location;lat;lon;timestamp;P1;durP1;ratioP1;P2;durP2;ratioP2
10293;SDS011;5192;50.328;7.610;2023-04-05T00:00:25;5.53;;;4.03;;
10293;SDS011;5192;50.328;7.610;2023-04-05T00:02:56;5.23;;;3.63;;
10293;SDS011;5192;50.328;7.610;2023-04-05T00:05:25;5.17;;;4.10;;
10293;SDS011;5192;50.328;7.610;2023-04-05T00:08:05;5.40;;;3.50;;
10293;SDS011;5192;50.328;7.610;2023-04-05T00:10:43;4.77;;;4.20;;
10293;SDS011;5192;50.328;7.610;2023-04-05T00:13:09;7.23;;;4.00;;
10293;SDS011;5192;50.328;7.610;2023-04-05T00:15:37;6.73;;;4.47;;
10293;SDS011;5192;50.328;7.610;2023-04-05T00:18:04;4.73;;;4.23;;
10293;SDS011;5192;50.328;7.610;2023-04-05T00:20:32;8.63;;;4.47;;
10293;SDS011;5192;50.328;7.610;2023-04-05T00:23:02;5.33;;;4.40;;
10293;SDS011;5192;50.328;7.610;2023-04-05T00:25:32;4.83;;;4.00;;
10293;SDS011;5192;50.328;7.610;2023-04-05T00:27:59;5.27;;;4.20;;
10293;SDS011;5192;50.328;7.610;2023-04-05T00:30:26;5.97;;;4.33;;
10293;SDS011;5192;50.328;7.610;2023-04-05T00:32:53;5.40;;;4.03;;
10293;SDS011;5192;50.328;7.610;2023-04-05T00:35:18;7.00;;;4.43;;
10293;SDS011;5192;50.328;7.610;2023-04-05T00:37:45;6.67;;;4.57;;
10293;SDS011;5192;50.328;7.610;2023-04-05T00:40:13;4.97;;;4.00;;
10293;SDS011;5192;50.328;7.610;2023-04-05T00:42:41;5.60;;;4.07;;
10293;SDS011;5192;50.328;7.610;2023-04-05T00:45:08;5.23;;;4.20;;
10293;SDS011;5192;50.328;7.610;2023-04-05T00:47:38;4.70;;;4.23;;
10293;SDS011;5192;50.328;7.610;2023-04-05T00:50:05;5.13;;;3.97;;
10293;SDS011;5192;50.328;7.610;2023-04-05T00:52:34;5.63;;;4.53;;
10293;SDS011;5192;50.328;7.610;2023-04-05T00:55:07;6.33;;;4.53;;
10293;SDS011;5192;50.328;7.610;2023-04-05T00:57:36;6.27;;;4.17;;
10293;SDS011;5192;50.328;7.610;2023-04-05T01:00:08;5.87;;;5.07;;
10293;SDS011;5192;50.328;7.610;2023-04-05T01:11:23;6.63;;;4.20;;
10293;SDS011;5192;50.328;7.610;2023-04-05T01:13:59;7.47;;;4.13;;
10293;SDS011;5192;50.328;7.610;2023-04-05T01:16:26;5.50;;;4.17;;
10293;SDS011;5192;50.328;7.610;2023-04-05T01:18:54;7.10;;;4.27;;
10293;SDS011;5192;50.328;7.610;2023-04-05T01:27:10;6.00;;;3.80;;
10293;SDS011;5192;50.328;7.610;2023-04-05T01:35:39;5.23;;;3.93;;
10293;SDS011;5192;50.328;7.610;2023-04-05T01:38:30;6.40;;;4.10;;
10293;SDS011;5192;50.328;7.610;2023-04-05T01:41:02;7.47;;;4.23;;
10293;SDS011;5192;50.328;7.610;2023-04-05T01:43:28;4.93;;;3.87;;
10293;SDS011;5192;50.328;7.610;2023-04-05T01:45:55;4.70;;;3.83;;
10293;SDS011;5192;50.328;7.610;2023-04-05T01:48:23;5.20;;;4.00;;
10293;SDS011;5192;50.328;7.610;2023-04-05T01:50:51;5.23;;;3.67;;
10293;SDS011;5192;50.328;7.610;2023-04-05T01:53:18;6.07;;;4.30;;
10293;SDS011;5192;50.328;7.610;2023-04-05T01:55:47;5.73;;;4.47;;
10293;SDS011;5192;50.328;7.610;2023-04-05T01:58:15;6.80;;;4.43;;
10293;SDS011;5192;50.328;7.610;2023-04-05T02:00:41;5.37;;;4.20;;
10293;SDS011;5192;50.328;7.610;2023-04-05T02:03:08;5.60;;;4.37;;
10293;SDS011;5192;50.328;7.610;2023-04-05T02:05:36;6.43;;;4.37;;
10293;SDS011;5192;50.328;7.610;2023-04-05T02:08:03;5.40;;;3.87;;
10293;SDS011;5192;50.328;7.610;2023-04-05T02:10:32;5.47;;;4.07;;
10293;SDS011;5192;50.328;7.610;2023-04-05T02:12:58;4.77;;;3.80;;
10293;SDS011;5192;50.328;7.610;2023-04-05T02:15:27;4.50;;;4.10;;
10293;SDS011;5192;50.328;7.610;2023-04-05T02:17:54;4.67;;;3.63;;
10293;SDS011;5192;50.328;7.610;2023-04-05T02:20:21;5.87;;;3.90;;
10293;SDS011;5192;50.328;7.610;2023-04-05T02:22:47;4.60;;;3.93;;
10293;SDS011;5192;50.328;7.610;2023-04-05T02:25:14;5.20;;;4.00;;
10293;SDS011;5192;50.328;7.610;2023-04-05T02:27:42;5.03;;;4.03;;
10293;SDS011;5192;50.328;7.610;2023-04-05T02:30:09;4.20;;;3.80;;
10293;SDS011;5192;50.328;7.610;2023-04-05T02:32:38;4.47;;;3.77;;
10293;SDS011;5192;50.328;7.610;2023-04-05T02:35:11;5.33;;;4.27;;
10293;SDS011;5192;50.328;7.610;2023-04-05T02:37:39;4.13;;;3.73;;
10293;SDS011;5192;50.328;7.610;2023-04-05T02:40:05;5.63;;;3.93;;
10293;SDS011;5192;50.328;7.610;2023-04-05T02:42:33;6.43;;;3.80;;
10293;SDS011;5192;50.328;7.610;2023-04-05T02:45:01;4.30;;;3.90;;
10293;SDS011;5192;50.328;7.610;2023-04-05T02:47:29;4.40;;;4.00;;
10293;SDS011;5192;50.328;7.610;2023-04-05T02:49:57;4.40;;;3.80;;
10293;SDS011;5192;50.328;7.610;2023-04-05T02:52:24;5.83;;;4.70;;
10293;SDS011;5192;50.328;7.610;2023-04-05T02:54:51;5.27;;;4.17;;
10293;SDS011;5192;50.328;7.610;2023-04-05T02:57:17;5.60;;;4.20;;
10293;SDS011;5192;50.328;7.610;2023-04-05T02:59:45;7.53;;;4.40;;
10293;SDS011;5192;50.328;7.610;2023-04-05T03:02:10;5.70;;;4.30;;
10293;SDS011;5192;50.328;7.610;2023-04-05T03:04:36;6.43;;;4.17;;
10293;SDS011;5192;50.328;7.610;2023-04-05T03:07:06;5.40;;;4.03;;
10293;SDS011;5192;50.328;7.610;2023-04-05T03:09:36;4.73;;;4.07;;
10293;SDS011;5192;50.328;7.610;2023-04-05T03:12:02;4.93;;;4.07;;
10293;SDS011;5192;50.328;7.610;2023-04-05T03:14:31;6.57;;;4.67;;
10293;SDS011;5192;50.328;7.610;2023-04-05T03:17:00;6.40;;;4.50;;
10293;SDS011;5192;50.328;7.610;2023-04-05T03:19:28;6.93;;;5.23;;
10293;SDS011;5192;50.328;7.610;2023-04-05T03:21:54;7.87;;;4.60;;
10293;SDS011;5192;50.328;7.610;2023-04-05T03:24:26;7.43;;;4.97;;
10293;SDS011;5192;50.328;7.610;2023-04-05T03:26:53;9.70;;;5.73;;
10293;SDS011;5192;50.328;7.610;2023-04-05T03:29:21;6.03;;;4.63;;
10293;SDS011;5192;50.328;7.610;2023-04-05T03:31:48;6.23;;;4.30;;
10293;SDS011;5192;50.328;7.610;2023-04-05T03:34:15;6.63;;;4.77;;
10293;SDS011;5192;50.328;7.610;2023-04-05T03:36:42;5.53;;;4.87;;
10293;SDS011;5192;50.328;7.610;2023-04-05T03:39:11;5.20;;;4.70;;
10293;SDS011;5192;50.328;7.610;2023-04-05T03:41:39;7.93;;;5.47;;
10293;SDS011;5192;50.328;7.610;2023-04-05T03:44:07;7.73;;;5.17;;
10293;SDS011;5192;50.328;7.610;2023-04-05T03:46:33;5.80;;;4.60;;
10293;SDS011;5192;50.328;7.610;2023-04-05T03:49:03;6.57;;;4.80;;
10293;SDS011;5192;50.328;7.610;2023-04-05T03:51:32;7.13;;;4.83;;
10293;SDS011;5192;50.328;7.610;2023-04-05T03:54:01;7.10;;;5.87;;
10293;SDS011;5192;50.328;7.610;2023-04-05T03:56:29;5.10;;;4.20;;
10293;SDS011;5192;50.328;7.610;2023-04-05T03:58:58;6.10;;;4.83;;
10293;SDS011;5192;50.328;7.610;2023-04-05T04:01:26;7.23;;;4.70;;
10293;SDS011;5192;50.328;7.610;2023-04-05T04:03:51;5.30;;;4.13;;
10293;SDS011;5192;50.328;7.610;2023-04-05T04:06:18;5.70;;;4.67;;
10293;SDS011;5192;50.328;7.610;2023-04-05T04:08:45;6.17;;;4.70;;
10293;SDS011;5192;50.328;7.610;2023-04-05T04:11:12;5.30;;;4.43;;
10293;SDS011;5192;50.328;7.610;2023-04-05T04:13:41;6.33;;;4.27;;
10293;SDS011;5192;50.328;7.610;2023-04-05T04:16:08;8.90;;;5.13;;
10293;SDS011;5192;50.328;7.610;2023-04-05T04:18:33;5.97;;;4.70;;
10293;SDS011;5192;50.328;7.610;2023-04-05T04:21:01;6.90;;;4.27;;
10293;SDS011;5192;50.328;7.610;2023-04-05T04:23:32;8.03;;;5.10;;
10293;SDS011;5192;50.328;7.610;2023-04-05T04:25:58;6.00;;;4.57;;
10293;SDS011;5192;50.328;7.610;2023-04-05T04:28:27;7.07;;;4.70;;
10293;SDS011;5192;50.328;7.610;2023-04-05T04:30:54;8.07;;;4.57;;
10293;SDS011;5192;50.328;7.610;2023-04-05T04:33:22;6.10;;;4.80;;
10293;SDS011;5192;50.328;7.610;2023-04-05T04:35:48;5.47;;;4.80;;
10293;SDS011;5192;50.328;7.610;2023-04-05T04:38:20;5.60;;;4.70;;
10293;SDS011;5192;50.328;7.610;2023-04-05T04:40:50;5.77;;;4.57;;
10293;SDS011;5192;50.328;7.610;2023-04-05T04:43:18;5.63;;;4.37;;
10293;SDS011;5192;50.328;7.610;2023-04-05T04:45:53;6.43;;;4.63;;
10293;SDS011;5192;50.328;7.610;2023-04-05T04:48:20;7.83;;;5.20;;
10293;SDS011;5192;50.328;7.610;2023-04-05T04:50:48;7.53;;;5.20;;
10293;SDS011;5192;50.328;7.610;2023-04-05T04:53:15;8.87;;;5.37;;
10293;SDS011;5192;50.328;7.610;2023-04-05T04:55:44;7.50;;;5.27;;
10293;SDS011;5192;50.328;7.610;2023-04-05T04:58:11;5.63;;;4.33;;
10293;SDS011;5192;50.328;7.610;2023-04-05T05:00:41;6.47;;;4.93;;
10293;SDS011;5192;50.328;7.610;2023-04-05T05:03:11;7.73;;;4.97;;
10293;SDS011;5192;50.328;7.610;2023-04-05T05:05:45;7.27;;;4.47;;
10293;SDS011;5192;50.328;7.610;2023-04-05T05:08:12;6.40;;;4.63;;
10293;SDS011;5192;50.328;7.610;2023-04-05T05:10:40;6.43;;;5.27;;
10293;SDS011;5192;50.328;7.610;2023-04-05T05:13:07;6.90;;;4.80;;
10293;SDS011;5192;50.328;7.610;2023-04-05T05:15:38;5.37;;;4.87;;
10293;SDS011;5192;50.328;7.610;2023-04-05T05:18:09;8.30;;;4.77;;
10293;SDS011;5192;50.328;7.610;2023-04-05T05:20:38;8.23;;;4.70;;
10293;SDS011;5192;50.328;7.610;2023-04-05T05:23:08;9.90;;;5.47;;
10293;SDS011;5192;50.328;7.610;2023-04-05T05:25:35;9.67;;;4.60;;
10293;SDS011;5192;50.328;7.610;2023-04-05T05:28:02;6.43;;;4.97;;
10293;SDS011;5192;50.328;7.610;2023-04-05T05:30:29;7.63;;;5.07;;
10293;SDS011;5192;50.328;7.610;2023-04-05T05:32:57;6.07;;;5.20;;
10293;SDS011;5192;50.328;7.610;2023-04-05T05:35:25;8.60;;;5.47;;
10293;SDS011;5192;50.328;7.610;2023-04-05T05:37:51;9.33;;;5.60;;
10293;SDS011;5192;50.328;7.610;2023-04-05T05:40:19;6.27;;;5.07;;
10293;SDS011;5192;50.328;7.610;2023-04-05T05:42:45;5.47;;;4.23;;
10293;SDS011;5192;50.328;7.610;2023-04-05T05:45:13;7.43;;;4.97;;
10293;SDS011;5192;50.328;7.610;2023-04-05T05:47:40;4.93;;;4.43;;
10293;SDS011;5192;50.328;7.610;2023-04-05T05:50:06;6.17;;;4.97;;
10293;SDS011;5192;50.328;7.610;2023-04-05T05:52:33;7.00;;;5.13;;
10293;SDS011;5192;50.328;7.610;2023-04-05T05:55:01;6.87;;;5.10;;
10293;SDS011;5192;50.328;7.610;2023-04-05T05:57:28;6.47;;;4.93;;
10293;SDS011;5192;50.328;7.610;2023-04-05T05:59:57;6.30;;;4.83;;
10293;SDS011;5192;50.328;7.610;2023-04-05T06:02:22;7.33;;;5.20;;
10293;SDS011;5192;50.328;7.610;2023-04-05T06:04:51;7.30;;;4.90;;
10293;SDS011;5192;50.328;7.610;2023-04-05T06:07:20;5.83;;;5.07;;
10293;SDS011;5192;50.328;7.610;2023-04-05T06:09:48;6.47;;;5.20;;
10293;SDS011;5192;50.328;7.610;2023-04-05T06:12:15;5.87;;;4.87;;
10293;SDS011;5192;50.328;7.610;2023-04-05T06:14:42;7.07;;;5.90;;
10293;SDS011;5192;50.328;7.610;2023-04-05T06:17:09;6.47;;;5.23;;
10293;SDS011;5192;50.328;7.610;2023-04-05T06:19:36;6.43;;;5.27;;
10293;SDS011;5192;50.328;7.610;2023-04-05T06:22:04;6.67;;;5.30;;
10293;SDS011;5192;50.328;7.610;2023-04-05T06:24:31;6.63;;;5.93;;
10293;SDS011;5192;50.328;7.610;2023-04-05T06:26:58;6.27;;;5.20;;
10293;SDS011;5192;50.328;7.610;2023-04-05T06:29:26;6.57;;;4.97;;
10293;SDS011;5192;50.328;7.610;2023-04-05T06:31:54;8.13;;;5.77;;
10293;SDS011;5192;50.328;7.610;2023-04-05T06:34:20;7.03;;;5.23;;
10293;SDS011;5192;50.328;7.610;2023-04-05T06:36:47;9.37;;;6.27;;
10293;SDS011;5192;50.328;7.610;2023-04-05T06:39:15;8.63;;;6.50;;
10293;SDS011;5192;50.328;7.610;2023-04-05T06:41:42;7.90;;;5.80;;
10293;SDS011;5192;50.328;7.610;2023-04-05T06:44:10;7.00;;;5.83;;
10293;SDS011;5192;50.328;7.610;2023-04-05T06:46:35;7.50;;;6.20;;
10293;SDS011;5192;50.328;7.610;2023-04-05T06:49:02;9.20;;;6.77;;
10293;SDS011;5192;50.328;7.610;2023-04-05T06:51:32;7.90;;;6.73;;
10293;SDS011;5192;50.328;7.610;2023-04-05T06:53:58;7.97;;;6.30;;
10293;SDS011;5192;50.328;7.610;2023-04-05T06:56:27;7.40;;;6.10;;
10293;SDS011;5192;50.328;7.610;2023-04-05T06:58:54;6.97;;;5.57;;
10293;SDS011;5192;50.328;7.610;2023-04-05T07:01:23;8.07;;;5.50;;
10293;SDS011;5192;50.328;7.610;2023-04-05T07:03:52;8.27;;;5.20;;
10293;SDS011;5192;50.328;7.610;2023-04-05T07:06:19;7.73;;;5.73;;
10293;SDS011;5192;50.328;7.610;2023-04-05T07:08:45;7.20;;;5.50;;
10293;SDS011;5192;50.328;7.610;2023-04-05T07:11:13;7.33;;;5.97;;
10293;SDS011;5192;50.328;7.610;2023-04-05T07:13:39;8.27;;;5.93;;
10293;SDS011;5192;50.328;7.610;2023-04-05T07:16:06;6.57;;;5.70;;
10293;SDS011;5192;50.328;7.610;2023-04-05T07:18:33;7.87;;;5.80;;
10293;SDS011;5192;50.328;7.610;2023-04-05T07:21:01;8.63;;;6.27;;
10293;SDS011;5192;50.328;7.610;2023-04-05T07:23:29;6.87;;;5.70;;
10293;SDS011;5192;50.328;7.610;2023-04-05T07:26:03;7.43;;;5.40;;
10293;SDS011;5192;50.328;7.610;2023-04-05T07:28:31;7.10;;;6.27;;
10293;SDS011;5192;50.328;7.610;2023-04-05T07:30:59;6.80;;;6.10;;
10293;SDS011;5192;50.328;7.610;2023-04-05T07:33:27;7.83;;;6.13;;
10293;SDS011;5192;50.328;7.610;2023-04-05T07:35:57;8.93;;;6.13;;
10293;SDS011;5192;50.328;7.610;2023-04-05T07:38:23;8.10;;;6.07;;
10293;SDS011;5192;50.328;7.610;2023-04-05T07:40:49;7.53;;;6.30;;
10293;SDS011;5192;50.328;7.610;2023-04-05T07:43:17;7.70;;;6.00;;
10293;SDS011;5192;50.328;7.610;2023-04-05T07:45:48;7.70;;;6.07;;
10293;SDS011;5192;50.328;7.610;2023-04-05T07:48:13;6.77;;;5.97;;
10293;SDS011;5192;50.328;7.610;2023-04-05T07:50:40;7.27;;;6.00;;
10293;SDS011;5192;50.328;7.610;2023-04-05T07:53:13;6.50;;;5.83;;
10293;SDS011;5192;50.328;7.610;2023-04-05T07:55:40;6.93;;;5.37;;
10293;SDS011;5192;50.328;7.610;2023-04-05T07:58:07;6.47;;;5.47;;
10293;SDS011;5192;50.328;7.610;2023-04-05T08:00:33;7.50;;;5.63;;
10293;SDS011;5192;50.328;7.610;2023-04-05T08:03:01;7.87;;;5.57;;
10293;SDS011;5192;50.328;7.610;2023-04-05T08:05:28;6.37;;;5.17;;
10293;SDS011;5192;50.328;7.610;2023-04-05T08:07:55;7.57;;;5.10;;
10293;SDS011;5192;50.328;7.610;2023-04-05T08:10:25;6.90;;;5.50;;
10293;SDS011;5192;50.328;7.610;2023-04-05T08:12:53;6.93;;;5.00;;
10293;SDS011;5192;50.328;7.610;2023-04-05T08:15:20;8.47;;;5.40;;
10293;SDS011;5192;50.328;7.610;2023-04-05T08:17:47;5.97;;;5.40;;
10293;SDS011;5192;50.328;7.610;2023-04-05T08:20:12;8.07;;;5.60;;
10293;SDS011;5192;50.328;7.610;2023-04-05T08:22:39;5.63;;;5.10;;
10293;SDS011;5192;50.328;7.610;2023-04-05T08:25:07;7.67;;;5.40;;
10293;SDS011;5192;50.328;7.610;2023-04-05T08:27:35;8.23;;;5.43;;
10293;SDS011;5192;50.328;7.610;2023-04-05T08:30:03;6.97;;;5.20;;
10293;SDS011;5192;50.328;7.610;2023-04-05T08:32:31;8.23;;;5.70;;
10293;SDS011;5192;50.328;7.610;2023-04-05T08:34:58;5.33;;;4.83;;
10293;SDS011;5192;50.328;7.610;2023-04-05T08:37:26;5.57;;;5.07;;
10293;SDS011;5192;50.328;7.610;2023-04-05T08:39:54;6.80;;;5.10;;
10293;SDS011;5192;50.328;7.610;2023-04-05T08:42:35;5.50;;;4.60;;
10293;SDS011;5192;50.328;7.610;2023-04-05T08:45:08;7.97;;;5.87;;
10293;SDS011;5192;50.328;7.610;2023-04-05T08:47:37;5.67;;;5.07;;
10293;SDS011;5192;50.328;7.610;2023-04-05T08:50:05;7.90;;;5.47;;
10293;SDS011;5192;50.328;7.610;2023-04-05T08:52:35;5.90;;;5.20;;
10293;SDS011;5192;50.328;7.610;2023-04-05T08:55:15;6.33;;;4.93;;
10293;SDS011;5192;50.328;7.610;2023-04-05T08:57:45;5.00;;;4.50;;
10293;SDS011;5192;50.328;7.610;2023-04-05T09:00:23;7.03;;;5.43;;
10293;SDS011;5192;50.328;7.610;2023-04-05T09:02:53;6.10;;;4.60;;
10293;SDS011;5192;50.328;7.610;2023-04-05T09:05:23;5.97;;;5.00;;
10293;SDS011;5192;50.328;7.610;2023-04-05T09:07:50;7.37;;;4.67;;
10293;SDS011;5192;50.328;7.610;2023-04-05T09:10:17;5.10;;;4.60;;
10293;SDS011;5192;50.328;7.610;2023-04-05T09:12:47;6.40;;;4.50;;
10293;SDS011;5192;50.328;7.610;2023-04-05T09:15:15;5.20;;;4.70;;
10293;SDS011;5192;50.328;7.610;2023-04-05T09:17:43;4.93;;;3.87;;
10293;SDS011;5192;50.328;7.610;2023-04-05T09:20:10;4.23;;;3.83;;
10293;SDS011;5192;50.328;7.610;2023-04-05T09:22:45;4.80;;;4.07;;
10293;SDS011;5192;50.328;7.610;2023-04-05T09:28:04;4.80;;;4.30;;
10293;SDS011;5192;50.328;7.610;2023-04-05T09:30:31;4.77;;;4.23;;
10293;SDS011;5192;50.328;7.610;2023-04-05T09:32:58;7.17;;;4.43;;
10293;SDS011;5192;50.328;7.610;2023-04-05T09:35:27;5.73;;;4.53;;
10293;SDS011;5192;50.328;7.610;2023-04-05T09:37:58;4.73;;;4.13;;
10293;SDS011;5192;50.328;7.610;2023-04-05T09:43:36;6.53;;;4.87;;
10293;SDS011;5192;50.328;7.610;2023-04-05T09:46:02;5.30;;;4.43;;
10293;SDS011;5192;50.328;7.610;2023-04-05T09:48:44;5.97;;;4.50;;
10293;SDS011;5192;50.328;7.610;2023-04-05T09:51:18;7.43;;;4.83;;
10293;SDS011;5192;50.328;7.610;2023-04-05T09:56:37;6.77;;;4.77;;
10293;SDS011;5192;50.328;7.610;2023-04-05T09:59:23;5.37;;;4.57;;
10293;SDS011;5192;50.328;7.610;2023-04-05T10:01:50;9.87;;;4.70;;
10293;SDS011;5192;50.328;7.610;2023-04-05T10:04:23;6.30;;;4.63;;
10293;SDS011;5192;50.328;7.610;2023-04-05T10:07:03;5.67;;;4.47;;
10293;SDS011;5192;50.328;7.610;2023-04-05T10:09:36;7.03;;;4.30;;
10293;SDS011;5192;50.328;7.610;2023-04-05T10:12:04;7.40;;;4.93;;
10293;SDS011;5192;50.328;7.610;2023-04-05T10:14:41;6.23;;;4.23;;
10293;SDS011;5192;50.328;7.610;2023-04-05T10:17:27;5.87;;;4.33;;
10293;SDS011;5192;50.328;7.610;2023-04-05T10:20:29;4.73;;;4.23;;
10293;SDS011;5192;50.328;7.610;2023-04-05T10:23:07;7.90;;;4.97;;
10293;SDS011;5192;50.328;7.610;2023-04-05T10:25:59;6.73;;;4.63;;
10293;SDS011;5192;50.328;7.610;2023-04-05T10:34:17;7.93;;;4.90;;
10293;SDS011;5192;50.328;7.610;2023-04-05T10:39:46;4.93;;;4.23;;
10293;SDS011;5192;50.328;7.610;2023-04-05T10:42:19;6.67;;;4.80;;
10293;SDS011;5192;50.328;7.610;2023-04-05T10:44:52;6.63;;;4.50;;
10293;SDS011;5192;50.328;7.610;2023-04-05T10:47:27;5.83;;;4.40;;
10293;SDS011;5192;50.328;7.610;2023-04-05T10:50:21;9.80;;;5.93;;
10293;SDS011;5192;50.328;7.610;2023-04-05T10:52:50;6.80;;;5.07;;
10293;SDS011;5192;50.328;7.610;2023-04-05T10:55:21;5.10;;;4.57;;
10293;SDS011;5192;50.328;7.610;2023-04-05T10:57:49;4.70;;;4.30;;
10293;SDS011;5192;50.328;7.610;2023-04-05T11:00:16;6.27;;;4.37;;
10293;SDS011;5192;50.328;7.610;2023-04-05T11:02:44;5.33;;;4.20;;
10293;SDS011;5192;50.328;7.610;2023-04-05T11:05:31;4.97;;;4.13;;
10293;SDS011;5192;50.328;7.610;2023-04-05T11:08:03;4.90;;;4.23;;
10293;SDS011;5192;50.328;7.610;2023-04-05T11:10:38;4.90;;;4.37;;
10293;SDS011;5192;50.328;7.610;2023-04-05T11:13:06;5.00;;;4.50;;
10293;SDS011;5192;50.328;7.610;2023-04-05T11:15:36;7.10;;;4.73;;
10293;SDS011;5192;50.328;7.610;2023-04-05T11:23:14;6.73;;;4.50;;
10293;SDS011;5192;50.328;7.610;2023-04-05T11:25:45;6.23;;;4.60;;
10293;SDS011;5192;50.328;7.610;2023-04-05T11:31:22;6.13;;;4.30;;
10293;SDS011;5192;50.328;7.610;2023-04-05T11:33:55;5.57;;;4.37;;
10293;SDS011;5192;50.328;7.610;2023-04-05T11:41:58;5.23;;;4.30;;
10293;SDS011;5192;50.328;7.610;2023-04-05T11:44:25;6.63;;;4.23;;
10293;SDS011;5192;50.328;7.610;2023-04-05T11:47:16;6.07;;;4.53;;
10293;SDS011;5192;50.328;7.610;2023-04-05T11:49:49;4.63;;;4.20;;
10293;SDS011;5192;50.328;7.610;2023-04-05T11:52:16;4.70;;;4.23;;
10293;SDS011;5192;50.328;7.610;2023-04-05T11:54:44;4.97;;;4.30;;
10293;SDS011;5192;50.328;7.610;2023-04-05T11:57:19;5.77;;;4.30;;
10293;SDS011;5192;50.328;7.610;2023-04-05T11:59:51;7.40;;;4.23;;
10293;SDS011;5192;50.328;7.610;2023-04-05T12:02:18;5.40;;;4.70;;
10293;SDS011;5192;50.328;7.610;2023-04-05T12:04:54;5.80;;;4.03;;
10293;SDS011;5192;50.328;7.610;2023-04-05T12:07:24;5.80;;;4.00;;
10293;SDS011;5192;50.328;7.610;2023-04-05T12:12:37;4.30;;;3.90;;
10293;SDS011;5192;50.328;7.610;2023-04-05T12:15:07;4.87;;;3.70;;
10293;SDS011;5192;50.328;7.610;2023-04-05T12:17:49;5.10;;;4.00;;
10293;SDS011;5192;50.328;7.610;2023-04-05T12:20:23;4.93;;;4.27;;
10293;SDS011;5192;50.328;7.610;2023-04-05T12:22:54;5.30;;;4.07;;
10293;SDS011;5192;50.328;7.610;2023-04-05T12:25:23;5.10;;;3.87;;
10293;SDS011;5192;50.328;7.610;2023-04-05T12:27:51;4.00;;;3.60;;
10293;SDS011;5192;50.328;7.610;2023-04-05T12:30:19;5.63;;;3.77;;
10293;SDS011;5192;50.328;7.610;2023-04-05T12:35:34;4.60;;;3.87;;
10293;SDS011;5192;50.328;7.610;2023-04-05T12:38:02;4.33;;;3.87;;
10293;SDS011;5192;50.328;7.610;2023-04-05T12:40:35;5.40;;;3.80;;
10293;SDS011;5192;50.328;7.610;2023-04-05T12:43:09;5.33;;;4.03;;
10293;SDS011;5192;50.328;7.610;2023-04-05T12:45:36;4.60;;;4.20;;
10293;SDS011;5192;50.328;7.610;2023-04-05T12:50:51;4.33;;;3.70;;
10293;SDS011;5192;50.328;7.610;2023-04-05T12:53:23;6.10;;;4.57;;
10293;SDS011;5192;50.328;7.610;2023-04-05T12:56:14;4.30;;;3.90;;
10293;SDS011;5192;50.328;7.610;2023-04-05T12:58:53;4.87;;;4.10;;
10293;SDS011;5192;50.328;7.610;2023-04-05T13:01:19;6.17;;;4.03;;
10293;SDS011;5192;50.328;7.610;2023-04-05T13:03:47;4.33;;;3.93;;
10293;SDS011;5192;50.328;7.610;2023-04-05T13:06:14;4.83;;;4.27;;
10293;SDS011;5192;50.328;7.610;2023-04-05T13:08:41;5.03;;;3.80;;
10293;SDS011;5192;50.328;7.610;2023-04-05T13:11:07;3.57;;;3.27;;
10293;SDS011;5192;50.328;7.610;2023-04-05T13:13:35;5.10;;;4.30;;
10293;SDS011;5192;50.328;7.610;2023-04-05T13:16:02;4.53;;;4.13;;
10293;SDS011;5192;50.328;7.610;2023-04-05T13:18:32;4.90;;;4.00;;
10293;SDS011;5192;50.328;7.610;2023-04-05T13:20:58;6.47;;;4.07;;
10293;SDS011;5192;50.328;7.610;2023-04-05T13:23:25;6.20;;;4.83;;
10293;SDS011;5192;50.328;7.610;2023-04-05T13:25:53;6.87;;;4.67;;
10293;SDS011;5192;50.328;7.610;2023-04-05T13:28:20;5.73;;;5.17;;
10293;SDS011;5192;50.328;7.610;2023-04-05T13:30:46;5.63;;;4.80;;
10293;SDS011;5192;50.328;7.610;2023-04-05T13:33:14;7.63;;;4.80;;
10293;SDS011;5192;50.328;7.610;2023-04-05T13:35:43;5.43;;;4.93;;
10293;SDS011;5192;50.328;7.610;2023-04-05T13:38:12;5.50;;;5.00;;
10293;SDS011;5192;50.328;7.610;2023-04-05T13:40:38;6.07;;;4.73;;
10293;SDS011;5192;50.328;7.610;2023-04-05T13:43:05;5.00;;;4.50;;
10293;SDS011;5192;50.328;7.610;2023-04-05T13:45:33;5.03;;;4.50;;
10293;SDS011;5192;50.328;7.610;2023-04-05T13:48:02;7.07;;;5.10;;
10293;SDS011;5192;50.328;7.610;2023-04-05T13:50:29;5.50;;;4.97;;
10293;SDS011;5192;50.328;7.610;2023-04-05T13:52:57;5.70;;;5.20;;
10293;SDS011;5192;50.328;7.610;2023-04-05T13:55:25;7.37;;;5.40;;
10293;SDS011;5192;50.328;7.610;2023-04-05T13:57:53;7.03;;;5.33;;
10293;SDS011;5192;50.328;7.610;2023-04-05T14:00:20;5.90;;;5.30;;
10293;SDS011;5192;50.328;7.610;2023-04-05T14:02:50;5.87;;;5.27;;
10293;SDS011;5192;50.328;7.610;2023-04-05T14:05:17;6.00;;;5.40;;
10293;SDS011;5192;50.328;7.610;2023-04-05T14:07:45;5.43;;;4.80;;
10293;SDS011;5192;50.328;7.610;2023-04-05T14:10:10;5.57;;;4.90;;
10293;SDS011;5192;50.328;7.610;2023-04-05T14:12:37;5.40;;;4.87;;
10293;SDS011;5192;50.328;7.610;2023-04-05T14:15:05;4.80;;;4.40;;
10293;SDS011;5192;50.328;7.610;2023-04-05T14:17:33;8.13;;;4.50;;
10293;SDS011;5192;50.328;7.610;2023-04-05T14:20:00;5.77;;;5.27;;
10293;SDS011;5192;50.328;7.610;2023-04-05T14:22:26;5.50;;;5.00;;
10293;SDS011;5192;50.328;7.610;2023-04-05T14:24:54;7.13;;;5.23;;
10293;SDS011;5192;50.328;7.610;2023-04-05T14:27:22;5.97;;;5.37;;
10293;SDS011;5192;50.328;7.610;2023-04-05T14:29:53;5.73;;;5.13;;
10293;SDS011;5192;50.328;7.610;2023-04-05T14:32:24;6.20;;;5.17;;
10293;SDS011;5192;50.328;7.610;2023-04-05T14:34:52;5.63;;;4.60;;
10293;SDS011;5192;50.328;7.610;2023-04-05T14:37:20;4.77;;;4.10;;
10293;SDS011;5192;50.328;7.610;2023-04-05T14:39:47;5.50;;;5.00;;
10293;SDS011;5192;50.328;7.610;2023-04-05T14:42:13;5.03;;;4.43;;
10293;SDS011;5192;50.328;7.610;2023-04-05T14:44:40;4.40;;;4.00;;
10293;SDS011;5192;50.328;7.610;2023-04-05T14:47:07;6.93;;;5.03;;
10293;SDS011;5192;50.328;7.610;2023-04-05T14:49:36;4.57;;;4.17;;
10293;SDS011;5192;50.328;7.610;2023-04-05T14:52:02;6.20;;;4.53;;
10293;SDS011;5192;50.328;7.610;2023-04-05T14:54:29;4.13;;;3.83;;
10293;SDS011;5192;50.328;7.610;2023-04-05T14:56:57;4.83;;;4.20;;
10293;SDS011;5192;50.328;7.610;2023-04-05T14:59:25;4.67;;;4.27;;
10293;SDS011;5192;50.328;7.610;2023-04-05T15:01:55;5.63;;;4.83;;
10293;SDS011;5192;50.328;7.610;2023-04-05T15:04:22;4.80;;;4.30;;
10293;SDS011;5192;50.328;7.610;2023-04-05T15:06:50;4.30;;;3.90;;
10293;SDS011;5192;50.328;7.610;2023-04-05T15:09:18;3.77;;;3.47;;
10293;SDS011;5192;50.328;7.610;2023-04-05T15:11:46;4.20;;;3.90;;
10293;SDS011;5192;50.328;7.610;2023-04-05T15:14:13;4.80;;;4.00;;
10293;SDS011;5192;50.328;7.610;2023-04-05T15:16:38;5.10;;;3.93;;
10293;SDS011;5192;50.328;7.610;2023-04-05T15:19:05;4.30;;;3.70;;
10293;SDS011;5192;50.328;7.610;2023-04-05T15:21:32;4.03;;;3.27;;
10293;SDS011;5192;50.328;7.610;2023-04-05T15:24:01;4.57;;;3.40;;
10293;SDS011;5192;50.328;7.610;2023-04-05T15:26:28;6.70;;;4.03;;
10293;SDS011;5192;50.328;7.610;2023-04-05T15:28:55;4.60;;;3.80;;
10293;SDS011;5192;50.328;7.610;2023-04-05T15:31:23;6.63;;;3.50;;
10293;SDS011;5192;50.328;7.610;2023-04-05T15:33:51;3.37;;;3.07;;
10293;SDS011;5192;50.328;7.610;2023-04-05T15:36:19;3.87;;;3.47;;
10293;SDS011;5192;50.328;7.610;2023-04-05T15:38:46;3.80;;;3.40;;
10293;SDS011;5192;50.328;7.610;2023-04-05T15:41:13;4.87;;;3.80;;
10293;SDS011;5192;50.328;7.610;2023-04-05T15:43:41;4.77;;;3.60;;
10293;SDS011;5192;50.328;7.610;2023-04-05T15:46:09;5.20;;;3.87;;
10293;SDS011;5192;50.328;7.610;2023-04-05T15:48:36;6.00;;;4.20;;
10293;SDS011;5192;50.328;7.610;2023-04-05T15:51:03;4.13;;;3.57;;
10293;SDS011;5192;50.328;7.610;2023-04-05T15:53:32;5.70;;;3.70;;
10293;SDS011;5192;50.328;7.610;2023-04-05T15:56:01;5.00;;;3.70;;
10293;SDS011;5192;50.328;7.610;2023-04-05T15:58:28;3.97;;;3.43;;
10293;SDS011;5192;50.328;7.610;2023-04-05T16:00:54;4.17;;;3.50;;
10293;SDS011;5192;50.328;7.610;2023-04-05T16:03:22;4.20;;;3.60;;
10293;SDS011;5192;50.328;7.610;2023-04-05T16:05:50;4.83;;;3.97;;
10293;SDS011;5192;50.328;7.610;2023-04-05T16:08:18;3.93;;;3.30;;
10293;SDS011;5192;50.328;7.610;2023-04-05T16:10:44;4.10;;;3.67;;